sensor_id;sensor_type;location;lat;lon;timestamp;temperature;humidity
42147;DHT22;27815;43.410;11.852;2023-11-19T00:02:08;7.60;69.90
42147;DHT22;27815;43.410;11.852;2023-11-19T00:06:11;7.50;70.20
42147;DHT22;27815;43.410;11.852;2023-11-19T00:10:17;7.50;70.20
42147;DHT22;27815;43.410;11.852;2023-11-19T00:14:23;7.50;70.20
42147;DHT22;27815;43.410;11.852;2023-11-19T00:18:28;7.30;70.30
42147;DHT22;27815;43.410;11.852;2023-11-19T00:22:33;7.30;70.50
42147;DHT22;27815;43.410;11.852;2023-11-19T00:26:36;7.30;70.60
42147;DHT22;27815;43.410;11.852;2023-11-19T00:30:42;7.30;70.60
42147;DHT22;27815;43.410;11.852;2023-11-19T00:34:45;7.20;70.60
42147;DHT22;27815;43.410;11.852;2023-11-19T00:38:54;7.10;70.70
42147;DHT22;27815;43.410;11.852;2023-11-19T00:42:57;7.10;70.80
42147;DHT22;27815;43.410;11.852;2023-11-19T00:47:03;7.00;71.40
42147;DHT22;27815;43.410;11.852;2023-11-19T00:51:08;7.00;71.60
42147;DHT22;27815;43.410;11.852;2023-11-19T00:55:11;7.00;71.80
42147;DHT22;27815;43.410;11.852;2023-11-19T00:59:15;7.10;71.90
42147;DHT22;27815;43.410;11.852;2023-11-19T01:03:20;7.10;71.80
42147;DHT22;27815;43.410;11.852;2023-11-19T01:07:23;7.10;71.80
42147;DHT22;27815;43.410;11.852;2023-11-19T01:11:29;7.10;71.90
42147;DHT22;27815;43.410;11.852;2023-11-19T01:15:32;7.10;71.80
42147;DHT22;27815;43.410;11.852;2023-11-19T01:19:36;7.10;71.90
42147;DHT22;27815;43.410;11.852;2023-11-19T01:23:41;7.10;71.80
42147;DHT22;27815;43.410;11.852;2023-11-19T01:27:49;7.00;71.90
42147;DHT22;27815;43.410;11.852;2023-11-19T01:31:53;7.00;71.90
42147;DHT22;27815;43.410;11.852;2023-11-19T01:35:57;7.00;71.90
42147;DHT22;27815;43.410;11.852;2023-11-19T01:40:01;7.00;71.90
42147;DHT22;27815;43.410;11.852;2023-11-19T01:44:07;6.90;72.00
42147;DHT22;27815;43.410;11.852;2023-11-19T01:48:11;6.80;72.00
42147;DHT22;27815;43.410;11.852;2023-11-19T01:52:14;6.80;72.00
42147;DHT22;27815;43.410;11.852;2023-11-19T01:56:18;6.60;72.00
42147;DHT22;27815;43.410;11.852;2023-11-19T02:00:23;6.60;72.20
42147;DHT22;27815;43.410;11.852;2023-11-19T02:04:28;6.50;72.20
42147;DHT22;27815;43.410;11.852;2023-11-19T02:08:52;6.50;72.30
42147;DHT22;27815;43.410;11.852;2023-11-19T02:12:55;6.40;72.50
42147;DHT22;27815;43.410;11.852;2023-11-19T02:17:25;6.30;72.30
42147;DHT22;27815;43.410;11.852;2023-11-19T02:21:28;6.30;72.60
42147;DHT22;27815;43.410;11.852;2023-11-19T02:25:32;6.30;72.50
42147;DHT22;27815;43.410;11.852;2023-11-19T02:29:36;6.20;72.50
42147;DHT22;27815;43.410;11.852;2023-11-19T02:33:40;6.20;72.60
42147;DHT22;27815;43.410;11.852;2023-11-19T02:37:43;6.20;72.60
42147;DHT22;27815;43.410;11.852;2023-11-19T02:41:48;6.30;72.50
42147;DHT22;27815;43.410;11.852;2023-11-19T02:45:53;6.20;72.40
42147;DHT22;27815;43.410;11.852;2023-11-19T02:50:00;6.30;72.50
42147;DHT22;27815;43.410;11.852;2023-11-19T02:54:07;6.30;72.40
42147;DHT22;27815;43.410;11.852;2023-11-19T02:58:20;6.30;72.40
42147;DHT22;27815;43.410;11.852;2023-11-19T03:02:26;6.30;72.40
42147;DHT22;27815;43.410;11.852;2023-11-19T03:06:36;6.20;72.50
42147;DHT22;27815;43.410;11.852;2023-11-19T03:10:41;6.20;72.80
42147;DHT22;27815;43.410;11.852;2023-11-19T03:14:45;6.30;72.90
42147;DHT22;27815;43.410;11.852;2023-11-19T03:18:55;6.30;72.90
42147;DHT22;27815;43.410;11.852;2023-11-19T03:22:59;6.40;72.90
42147;DHT22;27815;43.410;11.852;2023-11-19T03:27:04;6.40;72.90
42147;DHT22;27815;43.410;11.852;2023-11-19T03:31:09;6.40;73.00
42147;DHT22;27815;43.410;11.852;2023-11-19T03:35:15;6.30;73.10
42147;DHT22;27815;43.410;11.852;2023-11-19T03:39:19;6.20;73.00
42147;DHT22;27815;43.410;11.852;2023-11-19T03:43:30;6.20;73.20
42147;DHT22;27815;43.410;11.852;2023-11-19T03:47:38;6.20;73.20
42147;DHT22;27815;43.410;11.852;2023-11-19T03:51:41;6.20;73.60
42147;DHT22;27815;43.410;11.852;2023-11-19T03:55:50;6.20;73.80
42147;DHT22;27815;43.410;11.852;2023-11-19T03:59:54;6.20;73.60
42147;DHT22;27815;43.410;11.852;2023-11-19T04:04:15;6.20;73.80
42147;DHT22;27815;43.410;11.852;2023-11-19T04:08:22;6.10;73.70
42147;DHT22;27815;43.410;11.852;2023-11-19T04:12:31;6.10;73.80
42147;DHT22;27815;43.410;11.852;2023-11-19T04:16:38;6.10;73.70
42147;DHT22;27815;43.410;11.852;2023-11-19T04:20:42;6.10;73.60
42147;DHT22;27815;43.410;11.852;2023-11-19T04:24:46;6.20;73.60
42147;DHT22;27815;43.410;11.852;2023-11-19T04:29:00;6.10;73.50
42147;DHT22;27815;43.410;11.852;2023-11-19T04:33:20;6.10;73.50
42147;DHT22;27815;43.410;11.852;2023-11-19T04:37:24;6.00;73.60
42147;DHT22;27815;43.410;11.852;2023-11-19T04:41:34;6.00;73.60
42147;DHT22;27815;43.410;11.852;2023-11-19T04:45:37;6.00;73.90
42147;DHT22;27815;43.410;11.852;2023-11-19T04:49:41;5.90;73.80
42147;DHT22;27815;43.410;11.852;2023-11-19T04:53:47;5.90;73.80
42147;DHT22;27815;43.410;11.852;2023-11-19T04:57:56;5.80;73.90
42147;DHT22;27815;43.410;11.852;2023-11-19T05:02:11;5.80;73.90
42147;DHT22;27815;43.410;11.852;2023-11-19T05:06:15;5.80;73.90
42147;DHT22;27815;43.410;11.852;2023-11-19T05:10:18;5.80;73.90
42147;DHT22;27815;43.410;11.852;2023-11-19T05:14:22;5.80;73.80
42147;DHT22;27815;43.410;11.852;2023-11-19T05:18:27;5.80;73.80
42147;DHT22;27815;43.410;11.852;2023-11-19T05:22:30;5.80;73.90
42147;DHT22;27815;43.410;11.852;2023-11-19T05:26:33;5.80;73.90
42147;DHT22;27815;43.410;11.852;2023-11-19T05:30:36;5.90;74.00
42147;DHT22;27815;43.410;11.852;2023-11-19T05:34:39;5.80;73.90
42147;DHT22;27815;43.410;11.852;2023-11-19T05:38:49;5.80;73.90
42147;DHT22;27815;43.410;11.852;2023-11-19T05:43:04;5.80;74.00
42147;DHT22;27815;43.410;11.852;2023-11-19T05:47:08;5.80;74.30
42147;DHT22;27815;43.410;11.852;2023-11-19T05:51:12;5.80;74.20
42147;DHT22;27815;43.410;11.852;2023-11-19T05:55:22;5.90;74.20
42147;DHT22;27815;43.410;11.852;2023-11-19T05:59:27;5.90;74.20
42147;DHT22;27815;43.410;11.852;2023-11-19T06:03:30;6.00;74.20
42147;DHT22;27815;43.410;11.852;2023-11-19T06:07:34;6.00;74.10
42147;DHT22;27815;43.410;11.852;2023-11-19T06:11:38;5.90;74.10
42147;DHT22;27815;43.410;11.852;2023-11-19T06:15:42;5.90;74.20
42147;DHT22;27815;43.410;11.852;2023-11-19T06:19:45;6.00;74.20
42147;DHT22;27815;43.410;11.852;2023-11-19T06:23:48;6.00;74.10
42147;DHT22;27815;43.410;11.852;2023-11-19T06:27:56;6.10;74.10
42147;DHT22;27815;43.410;11.852;2023-11-19T06:32:00;6.10;74.10
42147;DHT22;27815;43.410;11.852;2023-11-19T06:36:18;6.20;74.10
42147;DHT22;27815;43.410;11.852;2023-11-19T06:40:26;6.20;74.30
42147;DHT22;27815;43.410;11.852;2023-11-19T06:44:29;6.40;74.30
42147;DHT22;27815;43.410;11.852;2023-11-19T06:48:32;6.40;74.30
42147;DHT22;27815;43.410;11.852;2023-11-19T06:52:35;6.50;74.30
42147;DHT22;27815;43.410;11.852;2023-11-19T06:56:40;6.60;74.30
42147;DHT22;27815;43.410;11.852;2023-11-19T07:00:44;6.60;74.30
42147;DHT22;27815;43.410;11.852;2023-11-19T07:04:49;6.70;74.20
42147;DHT22;27815;43.410;11.852;2023-11-19T07:08:53;6.80;74.20
42147;DHT22;27815;43.410;11.852;2023-11-19T07:12:56;6.90;74.20
42147;DHT22;27815;43.410;11.852;2023-11-19T07:17:01;6.90;74.20
42147;DHT22;27815;43.410;11.852;2023-11-19T07:21:04;6.90;74.30
42147;DHT22;27815;43.410;11.852;2023-11-19T07:25:13;6.80;74.20
42147;DHT22;27815;43.410;11.852;2023-11-19T07:29:16;6.70;74.50
42147;DHT22;27815;43.410;11.852;2023-11-19T07:33:31;6.70;74.40
42147;DHT22;27815;43.410;11.852;2023-11-19T07:37:36;6.80;74.40
42147;DHT22;27815;43.410;11.852;2023-11-19T07:41:38;6.90;74.30
42147;DHT22;27815;43.410;11.852;2023-11-19T07:45:44;6.90;74.40
42147;DHT22;27815;43.410;11.852;2023-11-19T07:49:48;6.90;74.50
42147;DHT22;27815;43.410;11.852;2023-11-19T07:53:53;6.90;74.70
42147;DHT22;27815;43.410;11.852;2023-11-19T07:57:57;6.90;74.80
42147;DHT22;27815;43.410;11.852;2023-11-19T08:02:07;7.00;74.80
42147;DHT22;27815;43.410;11.852;2023-11-19T08:06:10;7.10;75.10
42147;DHT22;27815;43.410;11.852;2023-11-19T08:10:14;7.20;74.80
42147;DHT22;27815;43.410;11.852;2023-11-19T08:14:19;7.40;74.90
42147;DHT22;27815;43.410;11.852;2023-11-19T08:18:22;7.60;74.80
42147;DHT22;27815;43.410;11.852;2023-11-19T08:22:25;7.80;74.60
42147;DHT22;27815;43.410;11.852;2023-11-19T08:26:28;8.00;74.50
42147;DHT22;27815;43.410;11.852;2023-11-19T08:30:32;8.30;74.40
42147;DHT22;27815;43.410;11.852;2023-11-19T08:34:35;8.60;74.20
42147;DHT22;27815;43.410;11.852;2023-11-19T08:38:38;8.80;74.00
42147;DHT22;27815;43.410;11.852;2023-11-19T08:43:11;9.10;74.00
42147;DHT22;27815;43.410;11.852;2023-11-19T08:47:23;9.30;73.80
42147;DHT22;27815;43.410;11.852;2023-11-19T08:51:34;9.50;73.50
42147;DHT22;27815;43.410;11.852;2023-11-19T08:55:45;9.70;73.30
42147;DHT22;27815;43.410;11.852;2023-11-19T08:59:53;10.10;73.10
42147;DHT22;27815;43.410;11.852;2023-11-19T09:04:01;10.30;72.60
42147;DHT22;27815;43.410;11.852;2023-11-19T09:08:16;10.50;72.30
42147;DHT22;27815;43.410;11.852;2023-11-19T09:12:19;10.60;72.00
42147;DHT22;27815;43.410;11.852;2023-11-19T09:16:22;10.60;71.80
42147;DHT22;27815;43.410;11.852;2023-11-19T09:20:26;10.60;72.10
42147;DHT22;27815;43.410;11.852;2023-11-19T09:24:30;10.80;71.90
42147;DHT22;27815;43.410;11.852;2023-11-19T09:28:33;10.90;71.60
42147;DHT22;27815;43.410;11.852;2023-11-19T09:32:38;10.90;71.20
42147;DHT22;27815;43.410;11.852;2023-11-19T09:36:43;10.90;71.10
42147;DHT22;27815;43.410;11.852;2023-11-19T09:40:48;10.90;71.10
42147;DHT22;27815;43.410;11.852;2023-11-19T09:44:58;11.00;70.80
42147;DHT22;27815;43.410;11.852;2023-11-19T09:49:42;10.80;70.80
42147;DHT22;27815;43.410;11.852;2023-11-19T09:53:47;10.80;71.10
42147;DHT22;27815;43.410;11.852;2023-11-19T09:57:52;11.00;71.00
42147;DHT22;27815;43.410;11.852;2023-11-19T10:01:56;11.00;70.90
42147;DHT22;27815;43.410;11.852;2023-11-19T10:06:09;11.20;71.00
42147;DHT22;27815;43.410;11.852;2023-11-19T10:10:13;11.50;70.70
42147;DHT22;27815;43.410;11.852;2023-11-19T10:14:23;11.80;70.50
42147;DHT22;27815;43.410;11.852;2023-11-19T10:18:30;12.20;70.10
42147;DHT22;27815;43.410;11.852;2023-11-19T10:22:37;12.50;69.50
42147;DHT22;27815;43.410;11.852;2023-11-19T10:26:41;12.80;69.20
42147;DHT22;27815;43.410;11.852;2023-11-19T10:30:48;13.10;68.50
42147;DHT22;27815;43.410;11.852;2023-11-19T10:34:58;13.20;68.20
42147;DHT22;27815;43.410;11.852;2023-11-19T10:39:07;13.50;67.90
42147;DHT22;27815;43.410;11.852;2023-11-19T10:43:13;13.70;66.60
42147;DHT22;27815;43.410;11.852;2023-11-19T10:47:19;13.90;66.00
42147;DHT22;27815;43.410;11.852;2023-11-19T10:51:45;14.10;64.90
42147;DHT22;27815;43.410;11.852;2023-11-19T10:55:51;14.30;63.80
42147;DHT22;27815;43.410;11.852;2023-11-19T11:00:01;14.50;63.40
42147;DHT22;27815;43.410;11.852;2023-11-19T11:04:14;14.80;62.70
42147;DHT22;27815;43.410;11.852;2023-11-19T11:08:26;14.80;62.00
42147;DHT22;27815;43.410;11.852;2023-11-19T11:12:37;15.00;60.80
42147;DHT22;27815;43.410;11.852;2023-11-19T11:16:48;15.10;60.10
42147;DHT22;27815;43.410;11.852;2023-11-19T11:21:20;15.10;59.60
42147;DHT22;27815;43.410;11.852;2023-11-19T11:36:17;14.50;60.50
42147;DHT22;27815;43.410;11.852;2023-11-19T11:40:24;14.40;61.00
42147;DHT22;27815;43.410;11.852;2023-11-19T11:45:11;14.30;61.80
42147;DHT22;27815;43.410;11.852;2023-11-19T11:49:25;14.30;63.30
42147;DHT22;27815;43.410;11.852;2023-11-19T11:53:30;14.50;63.90
42147;DHT22;27815;43.410;11.852;2023-11-19T11:57:43;14.50;63.90
42147;DHT22;27815;43.410;11.852;2023-11-19T12:01:59;14.50;63.70
42147;DHT22;27815;43.410;11.852;2023-11-19T12:06:08;14.50;63.80
42147;DHT22;27815;43.410;11.852;2023-11-19T12:10:13;14.50;64.10
42147;DHT22;27815;43.410;11.852;2023-11-19T12:19:04;14.60;64.10
42147;DHT22;27815;43.410;11.852;2023-11-19T12:23:08;14.50;64.10
42147;DHT22;27815;43.410;11.852;2023-11-19T12:27:26;14.60;64.20
42147;DHT22;27815;43.410;11.852;2023-11-19T12:31:33;14.50;64.20
42147;DHT22;27815;43.410;11.852;2023-11-19T12:35:47;14.50;64.20
42147;DHT22;27815;43.410;11.852;2023-11-19T12:39:52;14.50;64.30
42147;DHT22;27815;43.410;11.852;2023-11-19T12:44:09;14.40;64.40
42147;DHT22;27815;43.410;11.852;2023-11-19T12:48:16;14.40;64.60
42147;DHT22;27815;43.410;11.852;2023-11-19T12:52:25;14.30;64.80
42147;DHT22;27815;43.410;11.852;2023-11-19T12:56:33;14.30;64.90
42147;DHT22;27815;43.410;11.852;2023-11-19T13:00:39;14.30;64.90
42147;DHT22;27815;43.410;11.852;2023-11-19T13:04:44;14.30;65.00
42147;DHT22;27815;43.410;11.852;2023-11-19T13:08:49;14.10;65.30
42147;DHT22;27815;43.410;11.852;2023-11-19T13:13:06;14.00;65.60
42147;DHT22;27815;43.410;11.852;2023-11-19T13:17:15;14.00;65.80
42147;DHT22;27815;43.410;11.852;2023-11-19T13:21:18;13.80;65.90
42147;DHT22;27815;43.410;11.852;2023-11-19T13:25:34;13.70;66.10
42147;DHT22;27815;43.410;11.852;2023-11-19T13:29:42;13.70;66.20
42147;DHT22;27815;43.410;11.852;2023-11-19T13:33:51;13.70;66.30
42147;DHT22;27815;43.410;11.852;2023-11-19T13:37:57;13.70;66.20
42147;DHT22;27815;43.410;11.852;2023-11-19T13:42:03;13.80;66.30
42147;DHT22;27815;43.410;11.852;2023-11-19T13:46:11;13.80;66.30
42147;DHT22;27815;43.410;11.852;2023-11-19T13:50:16;13.80;66.30
42147;DHT22;27815;43.410;11.852;2023-11-19T13:54:23;13.70;66.30
42147;DHT22;27815;43.410;11.852;2023-11-19T13:58:27;13.60;66.50
42147;DHT22;27815;43.410;11.852;2023-11-19T14:02:53;13.60;66.60
42147;DHT22;27815;43.410;11.852;2023-11-19T14:07:01;13.80;66.60
42147;DHT22;27815;43.410;11.852;2023-11-19T14:11:04;13.80;66.50
42147;DHT22;27815;43.410;11.852;2023-11-19T14:15:14;13.80;66.70
42147;DHT22;27815;43.410;11.852;2023-11-19T14:19:20;13.70;66.90
42147;DHT22;27815;43.410;11.852;2023-11-19T14:23:25;13.60;67.10
42147;DHT22;27815;43.410;11.852;2023-11-19T14:27:30;13.50;67.30
42147;DHT22;27815;43.410;11.852;2023-11-19T14:31:33;13.50;67.50
42147;DHT22;27815;43.410;11.852;2023-11-19T14:35:36;13.50;67.50
42147;DHT22;27815;43.410;11.852;2023-11-19T14:39:39;13.40;67.60
42147;DHT22;27815;43.410;11.852;2023-11-19T14:43:44;13.30;67.80
42147;DHT22;27815;43.410;11.852;2023-11-19T14:47:48;13.30;67.80
42147;DHT22;27815;43.410;11.852;2023-11-19T14:51:52;13.30;67.90
42147;DHT22;27815;43.410;11.852;2023-11-19T14:55:59;13.40;67.90
42147;DHT22;27815;43.410;11.852;2023-11-19T15:00:02;13.30;67.90
42147;DHT22;27815;43.410;11.852;2023-11-19T15:04:11;13.40;68.10
42147;DHT22;27815;43.410;11.852;2023-11-19T15:08:14;13.30;68.20
42147;DHT22;27815;43.410;11.852;2023-11-19T15:12:21;13.30;68.30
42147;DHT22;27815;43.410;11.852;2023-11-19T15:16:34;13.40;68.50
42147;DHT22;27815;43.410;11.852;2023-11-19T15:20:37;13.40;68.60
42147;DHT22;27815;43.410;11.852;2023-11-19T15:24:41;13.50;68.50
42147;DHT22;27815;43.410;11.852;2023-11-19T15:28:44;13.50;68.60
42147;DHT22;27815;43.410;11.852;2023-11-19T15:32:48;13.50;68.70
42147;DHT22;27815;43.410;11.852;2023-11-19T15:36:51;13.50;68.80
42147;DHT22;27815;43.410;11.852;2023-11-19T15:40:56;13.30;69.10
42147;DHT22;27815;43.410;11.852;2023-11-19T15:45:00;13.30;69.20
42147;DHT22;27815;43.410;11.852;2023-11-19T15:49:09;13.30;69.20
42147;DHT22;27815;43.410;11.852;2023-11-19T15:53:14;13.20;69.30
42147;DHT22;27815;43.410;11.852;2023-11-19T16:03:06;13.20;69.60
42147;DHT22;27815;43.410;11.852;2023-11-19T16:08:21;13.20;69.60
42147;DHT22;27815;43.410;11.852;2023-11-19T16:14:31;13.00;69.80
42147;DHT22;27815;43.410;11.852;2023-11-19T16:25:00;12.80;70.50
42147;DHT22;27815;43.410;11.852;2023-11-19T16:29:12;12.80;70.90
42147;DHT22;27815;43.410;11.852;2023-11-19T16:40:43;12.50;71.70
42147;DHT22;27815;43.410;11.852;2023-11-19T16:55:54;12.30;71.90
42147;DHT22;27815;43.410;11.852;2023-11-19T17:02:15;12.30;71.80
42147;DHT22;27815;43.410;11.852;2023-11-19T17:08:20;12.20;72.00
42147;DHT22;27815;43.410;11.852;2023-11-19T17:18:30;12.30;72.00
42147;DHT22;27815;43.410;11.852;2023-11-19T17:25:09;12.20;72.10
42147;DHT22;27815;43.410;11.852;2023-11-19T17:31:44;12.30;72.10
42147;DHT22;27815;43.410;11.852;2023-11-19T17:37:19;12.40;72.10
42147;DHT22;27815;43.410;11.852;2023-11-19T17:43:34;12.40;72.00
42147;DHT22;27815;43.410;11.852;2023-11-19T17:49:05;12.40;71.90
42147;DHT22;27815;43.410;11.852;2023-11-19T17:54:10;12.40;72.00
42147;DHT22;27815;43.410;11.852;2023-11-19T18:04:18;12.30;72.30
42147;DHT22;27815;43.410;11.852;2023-11-19T18:08:47;12.40;72.30
42147;DHT22;27815;43.410;11.852;2023-11-19T18:14:07;12.30;72.40
42147;DHT22;27815;43.410;11.852;2023-11-19T18:18:13;12.20;72.40
42147;DHT22;27815;43.410;11.852;2023-11-19T18:22:26;12.30;72.40
42147;DHT22;27815;43.410;11.852;2023-11-19T18:26:29;12.40;72.20
42147;DHT22;27815;43.410;11.852;2023-11-19T18:30:35;12.40;72.20
42147;DHT22;27815;43.410;11.852;2023-11-19T18:34:39;12.50;72.10
42147;DHT22;27815;43.410;11.852;2023-11-19T18:38:44;12.50;72.10
42147;DHT22;27815;43.410;11.852;2023-11-19T18:42:48;12.50;72.10
42147;DHT22;27815;43.410;11.852;2023-11-19T18:46:56;12.50;72.10
42147;DHT22;27815;43.410;11.852;2023-11-19T18:51:03;12.50;72.10
42147;DHT22;27815;43.410;11.852;2023-11-19T18:55:07;12.50;72.30
42147;DHT22;27815;43.410;11.852;2023-11-19T18:59:12;12.60;72.30
42147;DHT22;27815;43.410;11.852;2023-11-19T19:03:16;12.80;72.30
42147;DHT22;27815;43.410;11.852;2023-11-19T19:07:25;13.00;72.20
42147;DHT22;27815;43.410;11.852;2023-11-19T19:11:30;13.10;71.90
42147;DHT22;27815;43.410;11.852;2023-11-19T19:15:35;13.20;71.90
42147;DHT22;27815;43.410;11.852;2023-11-19T19:19:39;13.40;71.70
42147;DHT22;27815;43.410;11.852;2023-11-19T19:23:42;13.50;71.60
42147;DHT22;27815;43.410;11.852;2023-11-19T19:27:45;13.70;71.40
42147;DHT22;27815;43.410;11.852;2023-11-19T19:31:55;13.80;71.10
42147;DHT22;27815;43.410;11.852;2023-11-19T19:35:58;13.90;70.90
42147;DHT22;27815;43.410;11.852;2023-11-19T19:40:02;14.00;70.70
42147;DHT22;27815;43.410;11.852;2023-11-19T19:44:26;14.00;70.50
42147;DHT22;27815;43.410;11.852;2023-11-19T19:48:29;14.00;70.40
42147;DHT22;27815;43.410;11.852;2023-11-19T19:52:32;14.10;70.30
42147;DHT22;27815;43.410;11.852;2023-11-19T19:56:39;14.10;70.30
42147;DHT22;27815;43.410;11.852;2023-11-19T20:00:43;14.20;70.30
42147;DHT22;27815;43.410;11.852;2023-11-19T20:04:46;14.20;70.20
42147;DHT22;27815;43.410;11.852;2023-11-19T20:08:52;14.30;70.00
42147;DHT22;27815;43.410;11.852;2023-11-19T20:12:55;14.40;69.90
42147;DHT22;27815;43.410;11.852;2023-11-19T20:16:59;14.30;69.80
42147;DHT22;27815;43.410;11.852;2023-11-19T20:21:05;14.30;69.80
42147;DHT22;27815;43.410;11.852;2023-11-19T20:25:11;14.30;69.90
42147;DHT22;27815;43.410;11.852;2023-11-19T20:29:14;14.30;70.00
42147;DHT22;27815;43.410;11.852;2023-11-19T20:33:17;14.30;70.00
42147;DHT22;27815;43.410;11.852;2023-11-19T20:37:20;14.30;70.10
42147;DHT22;27815;43.410;11.852;2023-11-19T20:41:24;14.30;70.10
42147;DHT22;27815;43.410;11.852;2023-11-19T20:45:27;14.30;70.10
42147;DHT22;27815;43.410;11.852;2023-11-19T20:49:32;14.40;70.10
42147;DHT22;27815;43.410;11.852;2023-11-19T20:53:36;14.50;70.00
42147;DHT22;27815;43.410;11.852;2023-11-19T20:57:41;14.50;70.00
42147;DHT22;27815;43.410;11.852;2023-11-19T21:01:44;14.50;70.00
42147;DHT22;27815;43.410;11.852;2023-11-19T21:05:49;14.50;69.90
42147;DHT22;27815;43.410;11.852;2023-11-19T21:09:57;14.50;69.90
42147;DHT22;27815;43.410;11.852;2023-11-19T21:14:00;14.40;70.10
42147;DHT22;27815;43.410;11.852;2023-11-19T21:18:03;14.30;70.20
42147;DHT22;27815;43.410;11.852;2023-11-19T21:22:06;14.30;70.20
42147;DHT22;27815;43.410;11.852;2023-11-19T21:26:10;14.20;70.30
42147;DHT22;27815;43.410;11.852;2023-11-19T21:30:13;14.30;70.30
42147;DHT22;27815;43.410;11.852;2023-11-19T21:34:16;14.30;70.40
42147;DHT22;27815;43.410;11.852;2023-11-19T21:38:20;14.30;70.40
42147;DHT22;27815;43.410;11.852;2023-11-19T21:42:26;14.30;70.50
42147;DHT22;27815;43.410;11.852;2023-11-19T21:46:29;14.30;70.60
42147;DHT22;27815;43.410;11.852;2023-11-19T21:50:35;14.40;70.70
42147;DHT22;27815;43.410;11.852;2023-11-19T21:54:38;14.40;70.90
42147;DHT22;27815;43.410;11.852;2023-11-19T21:58:40;14.40;71.00
42147;DHT22;27815;43.410;11.852;2023-11-19T22:02:43;14.40;71.10
42147;DHT22;27815;43.410;11.852;2023-11-19T22:06:46;14.40;71.10
42147;DHT22;27815;43.410;11.852;2023-11-19T22:10:49;14.40;71.20
42147;DHT22;27815;43.410;11.852;2023-11-19T22:14:52;14.40;71.20
42147;DHT22;27815;43.410;11.852;2023-11-19T22:18:55;14.40;71.30
42147;DHT22;27815;43.410;11.852;2023-11-19T22:22:58;14.40;71.30
42147;DHT22;27815;43.410;11.852;2023-11-19T22:27:01;14.40;71.60
42147;DHT22;27815;43.410;11.852;2023-11-19T22:31:04;14.40;71.60
42147;DHT22;27815;43.410;11.852;2023-11-19T22:35:07;14.40;71.70
42147;DHT22;27815;43.410;11.852;2023-11-19T22:39:11;14.30;71.90
42147;DHT22;27815;43.410;11.852;2023-11-19T22:43:14;14.30;72.10
42147;DHT22;27815;43.410;11.852;2023-11-19T22:47:18;14.30;72.10
42147;DHT22;27815;43.410;11.852;2023-11-19T22:51:21;14.30;72.30
42147;DHT22;27815;43.410;11.852;2023-11-19T22:55:24;14.30;72.40
42147;DHT22;27815;43.410;11.852;2023-11-19T22:59:26;14.30;72.60
42147;DHT22;27815;43.410;11.852;2023-11-19T23:03:30;14.30;72.60
42147;DHT22;27815;43.410;11.852;2023-11-19T23:07:34;14.30;72.60
42147;DHT22;27815;43.410;11.852;2023-11-19T23:11:37;14.40;72.60
42147;DHT22;27815;43.410;11.852;2023-11-19T23:15:40;14.50;72.40
42147;DHT22;27815;43.410;11.852;2023-11-19T23:19:44;14.60;72.10
42147;DHT22;27815;43.410;11.852;2023-11-19T23:23:47;14.60;72.00
42147;DHT22;27815;43.410;11.852;2023-11-19T23:27:50;14.50;72.10
42147;DHT22;27815;43.410;11.852;2023-11-19T23:31:53;14.60;72.10
42147;DHT22;27815;43.410;11.852;2023-11-19T23:35:56;14.60;72.10
42147;DHT22;27815;43.410;11.852;2023-11-19T23:39:59;14.60;72.10
42147;DHT22;27815;43.410;11.852;2023-11-19T23:44:03;14.60;72.00
42147;DHT22;27815;43.410;11.852;2023-11-19T23:48:06;14.60;71.80
42147;DHT22;27815;43.410;11.852;2023-11-19T23:52:10;14.60;71.90
42147;DHT22;27815;43.410;11.852;2023-11-19T23:56:13;14.70;71.90
